Palisade, NE (69040)

1:42 PM CDT on May 24, 2015 (GMT -0500)
Palisade | | Change Station
CLOSE
Current Station
Personal Weather Station
Location: Palisade, NE
Elevation: 2768 ft
Nearby Weather Stations

Elev 2768 ft 40.35 °N, 101.11 °W | Updated 28 seconds ago

Overcast
Overcast
71.8 °F
Feels Like 77 °F
N
5.8
Wind Variable Wind from SSW
Gusts 5.8 mph

Today
High -- | Low -- °F
--% Chance of Precip.
Yesterday
High -- | Low -- °F
Precip. -- in
6:21 AM 9:01 PM
Waxing Crescent, 41% visible
Pressure 29.81 in
Visibility 10.0 miles
Clouds Scattered Clouds 2700 ft
Overcast 3300 ft
Heat Index 77 °F
Dew Point 54 °F
Humidity 54%
Rainfall 0.16 in
Snow Depth Not available.
UV 3 out of 12
Pollen 6.00 out of 12
Air Quality Not available.
Flu Activity No Activity
METAR KMCK 241753Z AUTO 07005KT 10SM SCT027 OVC033 19/13 A2985 RMK AO2 SLP095 T01890133 10189 20133 56005

More Conditions Fewer Conditions

Pressure 29.81 in
Visibility 10.0 miles
Clouds Scattered Clouds 2700 ft
Overcast 3300 ft
Heat Index 77 °F
Dew Point 54 °F
Humidity 54%
Rainfall 0.16 in
Snow Depth Not available.
UV 3 out of 12
Pollen 6.00 out of 12
Air Quality Not available.
Flu Activity No Activity
METAR KMCK 241753Z AUTO 07005KT 10SM SCT027 OVC033 19/13 A2985 RMK AO2 SLP095 T01890133 10189 20133 56005

More Conditions Fewer Conditions

10-Day Weather Forecast

Almanac

Astronomy

May. 24, 2015 Rise Set
Actual Time
Civil Twilight
Nautical Twilight
Astronomical Twilight
Moon
Length of Visible Light
Length of Day
Tomorrow will be .
, % of the Moon is Illuminated

Today's Extremes

State Highs State Lows

Community

WunderPhotos

Upload Photos

1,823,821 photos uploaded!

WunderBlogs® & News

Nearby

Air Quality

  Air Quality AQ Index Pollutant
Not available.

Snow Depth

Station Depth Elevation

Earthquake Activity

City Distance Mag. Time & Date
Minimum magnitude displayed is 2.5.

Coastal Water Temperatures

Place Temperature

Stations

Nearby Weather Stations

Station Location Temp. Windchill Dew Point Humidity Wind Precip. Elev Updated Type